TDPD/DOM METAR and TAF weather

Enter ICAO airport designator
Station Type Date Time Source
TDPD METAR 2021/07/24 20:00 UTC NOAA

TDPD 242000Z 11006KT 9999 FEW015 BKN032 27/26 Q1014


Station Type Date Time Source
TDPD Decoded METAR 2021/07/24 20:00 UTC NOAA

Melville Hall Airport, Dominica (TDPD) 15-32N 061-18W 14M
Jul 24, 2021 - 04:00 PM EDT / 2021.07.24 2000 UTC
Wind: from the ESE (110 degrees) at 7 MPH (6 KT):0
Visibility: greater than 7 mile(s):0
Sky conditions: mostly cloudy
Temperature: 80 F (27 C)
Dew Point: 78 F (26 C)
Relative Humidity: 94%
Pressure (altimeter): 29.94 in. Hg (1014 hPa)
ob: TDPD 242000Z 11006KT 9999 FEW015 BKN032 27/26 Q1014
cycle: 20

Station Type Date Time Source
TDPD TAF 2021/07/24 18:41 UTC NOAA

TAF TDPD 241700Z 2418/2518 13010KT 9999 SCT016
TEMPO 2418/2424 TSRA BKN013 FEW014CB

Example: see airport list